Ormsby, Minnesota
Current Conditions -  °F | °C
As of 4:15 AM on Saturday 20 Dec 2014 (Local Time) from KJYG Reporting Station
Overcast Overcast  
Wind Chill: 24°   Ceiling: 1500
Heat Index: 32°   Visibility: 10mi
Dew Point: 28°   Wind: 10mph
Humidity: 87%   Direction: 170°S
Pressure: 30.13"   Gusts: NA
Location:  43.85°N, 94.7°W
Report Text: KJYG 201015Z AUTO 17009KT 10SM SCT008 OVC015 00/M02 A3013 RMK AO2
Loading
Personal Weather Stations






























Interactive Weather Map New forecast layout! Learn more

10-Day Weather Forecast

Advertisements
Track Severe Weather on mobile